LiveATC.Net - Listen to live air traffic control over the Internet!

Find LiveATC Audio Streams


Airport/ARTCC Code

Frequency Search
(e.g., 124.400, 128.75)
Site-wide search
 


Browse LiveATC Feeds
Top 50 LiveATC Feeds
LiveATC Feed Map
Bad Weather Areas

LiveATC FAQ
Offer LiveATC feed
Contact LiveATC.net
Press Inquiries

LiveATC on iPhone
LiveATC on Android

Windows Phone
Windows 8/10

LiveATC Mobile
(Mobile browser)

ATC Audio Archives
Interesting Recordings

LiveATC Forums

Home Page
About LiveATC.net
Make a Donation
Terms of Use
Privacy Policy

Canadian Air Freqs

AIRMETs/SIGMETs

FAA Airport Status
Nat'l Airspace Status
Arrival Demand Charts


Server Software By:
Icecast.org
Liquidsoap

Select an area of interest:
U.S. Feeds: Class B Airports | Class C Airports | Class D/Other Airports | ARTCC (Centers)
International Feeds: Canada | Europe | Oceania | Asia | South America | North/Central America | Africa
Misc Feeds: HF Feeds
Search by ICAO/IATA airport code:   (e.g., kbos, kjfk, lax, eham, etc.)


Currently Available Live Feeds: 2381
Status Updated: Thu Mar 21 2019 22:41:01 UTC


NOTICE

Unauthorized use prohibited. See LiveATC.net Terms of Service

North and Central America Airport Feeds

 

MMAN Tower
Monterrey, Mexico

Feed Status: DOWN
Offline since: 2019-03-21 07:13:03 UTC

MMAN 212140Z 10010KT 3SM BR BKN005 OVC007 16/14 A3019 RMK 8/7// DZ INTMT

Monterrey Tower: 118.600

MMCU Twr/App (Archives)
Chihuahua, Mexico

Feed Status: UP
Listen in your browser - HTML5 player(in browser, HTML5)
Click here to listen with your own player(launches your MP3 player)

MMCU 212142Z 15007G20KT 10SM FEW025 26/03 A3003 RMK 8/100

MMCU Flight Activity (Flightaware)

Listeners: 0 out of 1348 total

Chihuahua Approach: 121.000
Chihuahua Tower: 118.400

MMGL Twr/App (Archives)
Guadalajara, Mexico

Feed Status: UP
Listen in your browser - HTML5 player(in browser, HTML5)
Click here to listen with your own player(launches your MP3 player)

MMGL 212144Z 00000KT 12SM SCT030 28/M02 A3008 RMK 8/100 SC

MMGL Flight Activity (Flightaware)

Listeners: 1 out of 1348 total

Guadalajara Approach: 120.800
Guadalajara Tower: 118.100

MMHO App/Dep (Archives)
Hermosillo, Mexico

Feed Status: UP
Listen in your browser - HTML5 player(in browser, HTML5)
Click here to listen with your own player(launches your MP3 player)

MMHO 212140Z 24010KT 10SM BKN200 30/M01 A2998 RMK 8/008

MMHO Flight Activity (Flightaware)

Listeners: 0 out of 1348 total

Hermosillo Approach/Departure: 121.400

MMHO Tower (Archives)
Hermosillo, Mexico

Feed Status: UP
Listen in your browser - HTML5 player(in browser, HTML5)
Click here to listen with your own player(launches your MP3 player)

MMHO 212140Z 24010KT 10SM BKN200 30/M01 A2998 RMK 8/008

MMHO Flight Activity (Flightaware)

Listeners: 0 out of 1348 total

Hermosillo Tower: 118.700

MMLP Twr/App/Center (Archives)
La Paz, Mexico

Feed Status: UP
Listen in your browser - HTML5 player(in browser, HTML5)
Click here to listen with your own player(launches your MP3 player)

MMLP 212141Z 35009KT 10SM SKC 26/08 A2998

MMLP Flight Activity (Flightaware)

Listeners: 1 out of 1348 total

La Paz Approach: 120.600
La Paz Tower: 118.100
Mazatlan Center: 128.000
Mazatlan Center: 124.400
Mazatlan Center: 128.300
Mazatlan Center: 124.200
Mazatlan Center: 126.300
Mazatlan Center: 126.500
San Jose Approach: 120.900

Merida Center (West 123.75) (Archives)
Merida, Mexico

Feed Status: UP
Listen in your browser - HTML5 player(in browser, HTML5)
Click here to listen with your own player(launches your MP3 player)

MMID Flight Activity (Flightaware)

Listeners: 0 out of 1348 total

Merida Center (West): 123.750

Merida Center (West 125.8) (Archives)
Merida, Mexico

Feed Status: UP
Listen in your browser - HTML5 player(in browser, HTML5)
Click here to listen with your own player(launches your MP3 player)

MMID Flight Activity (Flightaware)

Listeners: 0 out of 1348 total

Merida Center (West): 125.800

MMMD Tower/Approach (Archives)
Merida, Mexico

Feed Status: UP
Listen in your browser - HTML5 player(in browser, HTML5)
Click here to listen with your own player(launches your MP3 player)

MMMD 212144Z 02008KT 7SM FEW020 SCT070 28/17 A3003 RMK 8/170

MMMD Flight Activity (Flightaware)

Listeners: 5 out of 1348 total

Merida Approach: 121.200
Merida Tower: 118.300

MMMM Tower (Archives)
Morelia, Mexico

Feed Status: UP
Listen in your browser - HTML5 player(in browser, HTML5)
Click here to listen with your own player(launches your MP3 player)

MMMM 212147Z 20007KT 10SM BKN030 26/03 A3014 RMK 8/100 HZY

MMMM Flight Activity (Flightaware)

Listeners: 0 out of 1348 total

Morelia Tower: 118.500

MMMX Approach (Archives)
Mexico City, Mexico

Feed Status: UP
Listen in your browser - HTML5 player(in browser, HTML5)
Click here to listen with your own player(launches your MP3 player)

MMMX 212145Z 22010KT 7SM BKN020CB 22/03 A3023 NOSIG RMK 8/300 HZY ISOL AC

MMMX Flight Activity (Flightaware)

Listeners: 0 out of 1348 total

Mexico City Approach: 121.200

MMMX Twr/App (Archives)
Mexico City, Mexico

Feed Status: UP
Listen in your browser - HTML5 player(in browser, HTML5)
Click here to listen with your own player(launches your MP3 player)

MMMX 212145Z 22010KT 7SM BKN020CB 22/03 A3023 NOSIG RMK 8/300 HZY ISOL AC

MMMX Flight Activity (Flightaware)

Listeners: 4 out of 1348 total

Mexico City Approach: 121.200
Mexico City Final Approach: 119.750
Mexico City Helicopters: 118.150
Mexico City Terminal: 129.600
Mexico City Tower: 118.550

MMMY Tower/Approach (Archives)
Monterrey, Mexico

Feed Status: UP
Listen in your browser - HTML5 player(in browser, HTML5)
Click here to listen with your own player(launches your MP3 player)

MMMY 212142Z 02004KT 2SM BR BKN004 OVC005 16/16 A3015 RMK 8/6// -DZ INTMT

MMMY Flight Activity (Flightaware)

Listeners: 2 out of 1348 total

Monterrey Approach/Departure: 119.750
Monterrey Tower: 118.100

MMPC CTAF
Pachuca, Mexico

Feed Status: DOWN
Offline since: 2019-03-02 20:24:04 UTC

Pachuca CTAF/AFIS: 122.900

MMQT Tower/App (Archives)
Queretaro, Mexico

Feed Status: UP
Listen in your browser - HTML5 player(in browser, HTML5)
Click here to listen with your own player(launches your MP3 player)

MMQT 212150Z 09008KT 10SM BKN030 24/06 A3022 RMK 8/100

MMQT Flight Activity (Flightaware)

Listeners: 0 out of 1348 total

Queretaro Approach: 127.200
Queretaro Tower: 118.950

MMSP Gnd/Twr/App/Center (Archives)
San Luis Potosi, Mexico

Feed Status: UP
Listen in your browser - HTML5 player(in browser, HTML5)
Click here to listen with your own player(launches your MP3 player)

MMSP 212144Z 09011KT 15SM FEW025 21/06 A3021 RMK 8/100

MMSP Flight Activity (Flightaware)

Listeners: 1 out of 1348 total

AMX Ground Ops: 131.000
Mexico Center (North, Sector 6): 126.000
Mexico Center (Northwest, Sector 7): 123.900
Mexico Center (West, Sector 5): 125.100
Potosi Approach: 127.500
Potosi Tower: 118.900
TAO Ground Ops: 133.600

MMTC Twr/App/Center (Archives)
Torreon, Mexico

Feed Status: UP
Listen in your browser - HTML5 player(in browser, HTML5)
Click here to listen with your own player(launches your MP3 player)

MMTC 212140Z 02009KT 8SM SCT025 29/09 A3001 RMK 8/500 HZY ISOL CI

MMTC Flight Activity (Flightaware)

Listeners: 0 out of 1348 total

Mazatlan Center: 124.200
Mazatlan Center: 124.400
Mazatlan Center: 128.000
Mexico Center: 123.900
Monterrey Center: 125.600
Monterrey Center: 125.425
Monterrey Center: 127.400
Torreon Approach: 119.500
Torreon Tower: 118.500

MMTJ Approach (Archives)
Tijuana, Mexico

Feed Status: UP
Listen in your browser - HTML5 player(in browser, HTML5)
Click here to listen with your own player(launches your MP3 player)

MMTJ 212150Z 22008KT 10SM SCT030 BKN200 15/08 A3014 RMK 8/508 HZY

MMTJ Flight Activity (Flightaware)

Listeners: 1 out of 1348 total

Tijuana Approach: 120.300

MMTJ Twr/Ramp (Archives)
Tijuana, Mexico

Feed Status: UP
Listen in your browser - HTML5 player(in browser, HTML5)
Click here to listen with your own player(launches your MP3 player)

MMTJ 212150Z 22008KT 10SM SCT030 BKN200 15/08 A3014 RMK 8/508 HZY

MMTJ Flight Activity (Flightaware)

Listeners: 3 out of 1348 total

Tijuana Ramp: 126.100
Tijuana Tower: 118.100

MUFH Havana FIR (App/Center) (Archives)
Havana, Cuba

Feed Status: UP
Listen in your browser - HTML5 player(in browser, HTML5)
Click here to listen with your own player(launches your MP3 player)

MUFH Flight Activity (Flightaware)

Listeners: 0 out of 1348 total

Hava Approach: 120.300
Havana Center: 120.250
Havana Center: 123.700
Havana Center: 124.550
Havana Center: 133.700
Havana Center: 135.100

TBPB Gnd/Twr/Radar/Center (Archives)
Bridgetown, Barbados

Feed Status: UP
Listen in your browser - HTML5 player(in browser, HTML5)
Click here to listen with your own player(launches your MP3 player)

TBPB 212200Z 09014KT 9999 FEW016 BKN034 26/22 Q1013 NOSIG

TBPB Flight Activity (Flightaware)

Listeners: 1 out of 1348 total

Adams Approach/Departure: 129.350
Adams Approach/Departure: 128.850
Adams Ground: 121.900
Adams Tower: 118.700
Piarco Center: 123.700

TXKF Tower/Ground (Archives)
Hamilton, Bermuda

Feed Status: UP
Listen in your browser - HTML5 player(in browser, HTML5)
Click here to listen with your own player(launches your MP3 player)

TXKF 212155Z 08008KT 9999 BKN013 OVC025 19/17 Q1010

TXKF Flight Activity (Flightaware)

Listeners: 0 out of 1348 total

Bermuda CTAF: 122.800
Bermuda Ground/Clearance: 124.500
Bermuda Tower: 118.100

ZNY Bermuda Sector (Archives)
Hamilton, Bermuda

Feed Status: UP
Listen in your browser - HTML5 player(in browser, HTML5)
Click here to listen with your own player(launches your MP3 player)

TXKF 212155Z 08008KT 9999 BKN013 OVC025 19/17 Q1010

TXKF Flight Activity (Flightaware)

Listeners: 0 out of 1348 total

New York Approach (Bermuda Sector) : 119.100
New York Center (Bermuda Sector): 128.500

MGGT Gnd/Twr (Archives)
Guatemala City, Guatemala

Feed Status: UP
Listen in your browser - HTML5 player(in browser, HTML5)
Click here to listen with your own player(launches your MP3 player)

MGGT 212200Z 03016KT 9999 SCT020 BKN080 22/13 Q1024 A3024

MGGT Flight Activity (Flightaware)

Listeners: 4 out of 1348 total

Guatemala City Ground: 121.900
Guatemala City Tower: 118.100

MGGT Ground (Archives)
Guatemala City, Guatemala

Feed Status: UP
Listen in your browser - HTML5 player(in browser, HTML5)
Click here to listen with your own player(launches your MP3 player)

MGGT 212200Z 03016KT 9999 SCT020 BKN080 22/13 Q1024 A3024

MGGT Flight Activity (Flightaware)

Listeners: 1 out of 1348 total

Guatemala City Ground: 121.900

MGGT Tower (Archives)
Guatemala City, Guatemala

Feed Status: UP
Listen in your browser - HTML5 player(in browser, HTML5)
Click here to listen with your own player(launches your MP3 player)

MGGT 212200Z 03016KT 9999 SCT020 BKN080 22/13 Q1024 A3024

MGGT Flight Activity (Flightaware)

Listeners: 0 out of 1348 total

Guatemala City Tower: 118.100

MHLC Gnd/Twr/Center (Archives)
La Ceiba, Honduras

Feed Status: UP
Listen in your browser - HTML5 player(in browser, HTML5)
Click here to listen with your own player(launches your MP3 player)

MHLC 212200Z 06008KT 9999 SCT024CB BKN090 28/22 Q1015 A2997 NOSIG

MHLC Flight Activity (Flightaware)

Listeners: 0 out of 1348 total

CENAMER: 123.900
CENAMER: 124.300
Goloson Ground: 121.900
Goloson Tower: 118.500
La Ceiba Radio: 128.900

MHRO Gnd/Twr/App/Center (Archives)
Roatan, Honduras

Feed Status: UP
Listen in your browser - HTML5 player(in browser, HTML5)
Click here to listen with your own player(launches your MP3 player)

MHRO 212200Z 04008KT 9999 FEW022 28/21 Q1015 A2997 NOSIG

MHRO Flight Activity (Flightaware)

Listeners: 0 out of 1348 total

CENAMER (Center): 124.300
La Ceiba Radio: 128.900
Roatan Ground: 121.600
Roatan Tower: 118.100

MHTG ATIS (Archives)
Tegucigalpa, Honduras

Feed Status: UP
Listen in your browser - HTML5 player(in browser, HTML5)
Click here to listen with your own player(launches your MP3 player)

MHTG 212200Z 06014KT 8000 SCT034 SCT090 26/10 Q1017 A3003 NOSIG

MHTG Flight Activity (Flightaware)

Listeners: 0 out of 1348 total

Toncontin ATIS: 127.750

MHTG Gnd/Twr/App/Ctr/Ops (Archives)
Tegucigalpa, Honduras

Feed Status: UP
Listen in your browser - HTML5 player(in browser, HTML5)
Click here to listen with your own player(launches your MP3 player)

MHTG 212200Z 06014KT 8000 SCT034 SCT090 26/10 Q1017 A3003 NOSIG

MHTG Flight Activity (Flightaware)

Listeners: 2 out of 1348 total

American Airlines Ops: 130.700
ARINC ACARS: 131.550
Cenamer Center: 123.900
Cenamer Center: 124.300
Cenamer Center: 124.100
CMP Ops: 129.925
Continental Airlines Ops: 129.925
FAH Ground: 122.900
Taca Ops: 131.300
Taca Ops Sal: 130.300
Tecnologias Unidas: 133.000
Tegucigalpa RDO: 126.700
Toncontin Approach: 119.100
Toncontin Ground: 121.900
Toncontin Tower: 118.700

MROC Del/Gnd/Twr (Archives)
San Jose, Costa Rica

Feed Status: UP
Listen in your browser - HTML5 player(in browser, HTML5)
Click here to listen with your own player(launches your MP3 player)

MROC 212200Z 11019G30KT 080V140 9999 FEW035 26/16 A2994 NOSIG

MROC Flight Activity (Flightaware)

Listeners: 0 out of 1348 total

Coco Clearance Delivery/Ground: 121.900
Coco Tower: 118.600

MROC Del/Gnd/Twr/App/Center/Misc (Archives)
San Jose, Costa Rica

Feed Status: UP
Listen in your browser - HTML5 player(in browser, HTML5)
Click here to listen with your own player(launches your MP3 player)

MROC 212200Z 11019G30KT 080V140 9999 FEW035 26/16 A2994 NOSIG

MROC Flight Activity (Flightaware)

Listeners: 10 out of 1348 total

Central American Center (CENAMER Control): 124.100
Coco Center (Control over CR Airspace): 119.600
Coco Clearance Delivery: 121.300
Coco Ground: 121.900
Coco Terminal Control: 120.500
Coco Tower: 118.600
Coco UNICOM: 126.800
SYQ Ground: 121.700
SYQ Tower: 118.300

MSLP Gnd/Twr/App (Archives)
San Salvador, El Salvador

Feed Status: UP
Listen in your browser - HTML5 player(in browser, HTML5)
Click here to listen with your own player(launches your MP3 player)

MSLP 212150Z 19005KT 130V230 9999 FEW077 31/21 Q1009 A2980 NOSIG

MSLP Flight Activity (Flightaware)

Listeners: 0 out of 1348 total

Comalapa Ground: 121.700
Comalapa Tower: 118.000
Compalapa Approach: 119.900